sensor_id;sensor_type;location;lat;lon;timestamp;pressure;altitude;pressure_sealevel;temperature;humidity
75063;BME280;63981;51.052;13.754;2023-07-16T00:02:20;99734.09;;;23.76;56.88
75063;BME280;63981;51.052;13.754;2023-07-16T00:04:46;99743.22;;;23.75;56.80
75063;BME280;63981;51.052;13.754;2023-07-16T00:07:12;99755.00;;;23.74;57.09
75063;BME280;63981;51.052;13.754;2023-07-16T00:09:39;99765.16;;;23.72;57.07
75063;BME280;63981;51.052;13.754;2023-07-16T00:12:05;99769.91;;;23.70;57.58
75063;BME280;63981;51.052;13.754;2023-07-16T00:14:32;99770.06;;;23.69;57.26
75063;BME280;63981;51.052;13.754;2023-07-16T00:17:00;99785.59;;;23.67;57.50
75063;BME280;63981;51.052;13.754;2023-07-16T00:19:26;99806.09;;;23.68;58.01
75063;BME280;63981;51.052;13.754;2023-07-16T00:21:52;99859.28;;;23.66;58.57
75063;BME280;63981;51.052;13.754;2023-07-16T00:24:19;99947.47;;;23.64;59.30
75063;BME280;63981;51.052;13.754;2023-07-16T00:26:45;99952.00;;;23.63;58.78
75063;BME280;63981;51.052;13.754;2023-07-16T00:29:11;99940.03;;;23.66;58.38
75063;BME280;63981;51.052;13.754;2023-07-16T00:31:38;99912.91;;;23.67;58.70
75063;BME280;63981;51.052;13.754;2023-07-16T00:34:05;99973.78;;;23.68;58.06
75063;BME280;63981;51.052;13.754;2023-07-16T00:36:32;99984.19;;;23.71;57.71
75063;BME280;63981;51.052;13.754;2023-07-16T00:38:58;99995.59;;;23.73;57.90
75063;BME280;63981;51.052;13.754;2023-07-16T00:41:25;100000.78;;;23.75;57.73
75063;BME280;63981;51.052;13.754;2023-07-16T00:43:51;99994.16;;;23.77;57.89
75063;BME280;63981;51.052;13.754;2023-07-16T00:46:17;100010.31;;;23.77;58.01
75063;BME280;63981;51.052;13.754;2023-07-16T00:48:43;100019.41;;;23.76;58.37
75063;BME280;63981;51.052;13.754;2023-07-16T00:51:11;100029.34;;;23.76;58.62
75063;BME280;63981;51.052;13.754;2023-07-16T00:53:39;100018.78;;;23.74;58.98
75063;BME280;63981;51.052;13.754;2023-07-16T00:56:07;100018.16;;;23.72;59.36
75063;BME280;63981;51.052;13.754;2023-07-16T00:58:34;100020.22;;;23.70;59.50
75063;BME280;63981;51.052;13.754;2023-07-16T01:01:00;100032.16;;;23.68;59.68
75063;BME280;63981;51.052;13.754;2023-07-16T01:03:27;100032.56;;;23.65;60.07
75063;BME280;63981;51.052;13.754;2023-07-16T01:06:00;100031.72;;;23.64;60.02
75063;BME280;63981;51.052;13.754;2023-07-16T01:08:32;100038.75;;;23.65;60.20
75063;BME280;63981;51.052;13.754;2023-07-16T01:11:00;100029.81;;;23.58;60.49
75063;BME280;63981;51.052;13.754;2023-07-16T01:13:27;100017.88;;;23.67;60.46
75063;BME280;63981;51.052;13.754;2023-07-16T01:15:55;100017.88;;;23.67;60.50
75063;BME280;63981;51.052;13.754;2023-07-16T01:18:21;100000.06;;;23.66;60.70
75063;BME280;63981;51.052;13.754;2023-07-16T01:20:47;99995.50;;;23.67;60.56
75063;BME280;63981;51.052;13.754;2023-07-16T01:23:31;99978.09;;;23.63;59.86
75063;BME280;63981;51.052;13.754;2023-07-16T01:26:12;99983.72;;;23.68;60.35
75063;BME280;63981;51.052;13.754;2023-07-16T01:28:53;99978.53;;;23.66;60.21
75063;BME280;63981;51.052;13.754;2023-07-16T01:31:24;99970.91;;;23.70;60.28
75063;BME280;63981;51.052;13.754;2023-07-16T01:33:52;99963.41;;;23.65;60.27
75063;BME280;63981;51.052;13.754;2023-07-16T01:36:21;99942.84;;;23.58;60.04
75063;BME280;63981;51.052;13.754;2023-07-16T01:38:48;99943.16;;;23.69;60.37
75063;BME280;63981;51.052;13.754;2023-07-16T01:41:17;99939.00;;;23.67;61.07
75063;BME280;63981;51.052;13.754;2023-07-16T01:43:44;99942.72;;;23.66;60.63
75063;BME280;63981;51.052;13.754;2023-07-16T01:46:11;99941.25;;;23.63;60.38
75063;BME280;63981;51.052;13.754;2023-07-16T01:48:39;99968.16;;;23.63;60.91
75063;BME280;63981;51.052;13.754;2023-07-16T01:51:05;99972.06;;;23.61;60.64
75063;BME280;63981;51.052;13.754;2023-07-16T01:53:32;99981.38;;;23.58;60.98
75063;BME280;63981;51.052;13.754;2023-07-16T01:55:58;99983.34;;;23.56;61.33
75063;BME280;63981;51.052;13.754;2023-07-16T01:58:24;99978.16;;;23.54;61.29
75063;BME280;63981;51.052;13.754;2023-07-16T02:00:51;99972.16;;;23.52;61.08
75063;BME280;63981;51.052;13.754;2023-07-16T02:03:18;99959.28;;;23.48;61.61
75063;BME280;63981;51.052;13.754;2023-07-16T02:05:45;99942.19;;;23.34;61.63
75063;BME280;63981;51.052;13.754;2023-07-16T02:08:12;99988.44;;;23.44;62.18
75063;BME280;63981;51.052;13.754;2023-07-16T02:10:38;99992.69;;;23.39;62.86
75063;BME280;63981;51.052;13.754;2023-07-16T02:13:04;99988.28;;;23.31;63.15
75063;BME280;63981;51.052;13.754;2023-07-16T02:15:31;99989.03;;;23.25;63.71
75063;BME280;63981;51.052;13.754;2023-07-16T02:17:57;100007.13;;;23.16;66.60
75063;BME280;63981;51.052;13.754;2023-07-16T02:20:23;100031.53;;;23.00;66.26
75063;BME280;63981;51.052;13.754;2023-07-16T02:22:51;100051.38;;;22.84;67.78
75063;BME280;63981;51.052;13.754;2023-07-16T02:25:17;100043.56;;;22.75;67.86
75063;BME280;63981;51.052;13.754;2023-07-16T02:27:43;100047.72;;;22.62;68.42
75063;BME280;63981;51.052;13.754;2023-07-16T02:30:10;100041.94;;;22.51;68.14
75063;BME280;63981;51.052;13.754;2023-07-16T02:32:36;100036.31;;;22.46;68.54
75063;BME280;63981;51.052;13.754;2023-07-16T02:35:03;100047.22;;;22.44;69.36
75063;BME280;63981;51.052;13.754;2023-07-16T02:37:29;100071.09;;;22.39;69.77
75063;BME280;63981;51.052;13.754;2023-07-16T02:39:58;100045.81;;;22.33;70.05
75063;BME280;63981;51.052;13.754;2023-07-16T02:42:27;100047.47;;;22.34;70.81
75063;BME280;63981;51.052;13.754;2023-07-16T02:44:56;100065.16;;;22.29;70.95
75063;BME280;63981;51.052;13.754;2023-07-16T02:47:23;100082.91;;;22.15;71.72
75063;BME280;63981;51.052;13.754;2023-07-16T02:49:50;100108.28;;;22.04;72.70
75063;BME280;63981;51.052;13.754;2023-07-16T02:52:17;100125.28;;;21.97;72.74
75063;BME280;63981;51.052;13.754;2023-07-16T02:54:43;100126.19;;;21.89;74.48
75063;BME280;63981;51.052;13.754;2023-07-16T02:57:11;100133.59;;;21.79;74.69
75063;BME280;63981;51.052;13.754;2023-07-16T02:59:37;100146.94;;;21.64;76.42
75063;BME280;63981;51.052;13.754;2023-07-16T03:02:04;100138.06;;;21.56;75.78
75063;BME280;63981;51.052;13.754;2023-07-16T03:04:30;100157.72;;;21.48;76.44
75063;BME280;63981;51.052;13.754;2023-07-16T03:06:56;100170.31;;;21.39;76.16
75063;BME280;63981;51.052;13.754;2023-07-16T03:09:23;100159.63;;;21.31;76.74
75063;BME280;63981;51.052;13.754;2023-07-16T03:11:49;100179.03;;;21.33;77.06
75063;BME280;63981;51.052;13.754;2023-07-16T03:14:19;100160.63;;;21.30;77.35
75063;BME280;63981;51.052;13.754;2023-07-16T03:16:45;100153.13;;;21.26;77.46
75063;BME280;63981;51.052;13.754;2023-07-16T03:19:12;100148.22;;;21.21;79.18
75063;BME280;63981;51.052;13.754;2023-07-16T03:21:38;100159.81;;;21.13;79.45
75063;BME280;63981;51.052;13.754;2023-07-16T03:24:05;100164.69;;;21.10;79.91
75063;BME280;63981;51.052;13.754;2023-07-16T03:26:32;100171.03;;;21.09;79.66
75063;BME280;63981;51.052;13.754;2023-07-16T03:28:58;100193.00;;;21.04;79.72
75063;BME280;63981;51.052;13.754;2023-07-16T03:31:26;100203.41;;;20.99;80.56
75063;BME280;63981;51.052;13.754;2023-07-16T03:33:52;100204.72;;;20.95;81.26
75063;BME280;63981;51.052;13.754;2023-07-16T03:36:18;100205.06;;;20.92;81.49
75063;BME280;63981;51.052;13.754;2023-07-16T03:38:45;100195.88;;;20.86;81.16
75063;BME280;63981;51.052;13.754;2023-07-16T03:41:11;100197.38;;;20.89;81.88
75063;BME280;63981;51.052;13.754;2023-07-16T03:43:40;100184.31;;;20.86;81.80
75063;BME280;63981;51.052;13.754;2023-07-16T03:46:18;100183.31;;;20.87;82.02
75063;BME280;63981;51.052;13.754;2023-07-16T03:48:46;100151.31;;;20.85;82.83
75063;BME280;63981;51.052;13.754;2023-07-16T03:51:13;100140.78;;;20.76;82.73
75063;BME280;63981;51.052;13.754;2023-07-16T03:53:40;100140.13;;;20.74;82.53
75063;BME280;63981;51.052;13.754;2023-07-16T03:56:06;100147.97;;;20.75;82.96
75063;BME280;63981;51.052;13.754;2023-07-16T03:58:33;100130.41;;;20.73;83.25
75063;BME280;63981;51.052;13.754;2023-07-16T04:01:01;100129.88;;;20.69;82.59
75063;BME280;63981;51.052;13.754;2023-07-16T04:03:28;100115.81;;;20.67;82.97
75063;BME280;63981;51.052;13.754;2023-07-16T04:06:02;100089.38;;;20.64;82.71
75063;BME280;63981;51.052;13.754;2023-07-16T04:08:28;100086.06;;;20.62;83.21
75063;BME280;63981;51.052;13.754;2023-07-16T04:10:55;100094.09;;;20.62;82.88
75063;BME280;63981;51.052;13.754;2023-07-16T04:13:21;100089.03;;;20.67;84.07
75063;BME280;63981;51.052;13.754;2023-07-16T04:15:47;100084.53;;;20.68;81.92
75063;BME280;63981;51.052;13.754;2023-07-16T04:18:14;100084.03;;;20.72;82.23
75063;BME280;63981;51.052;13.754;2023-07-16T04:20:40;100075.66;;;20.75;82.06
75063;BME280;63981;51.052;13.754;2023-07-16T04:23:07;100077.81;;;20.80;82.56
75063;BME280;63981;51.052;13.754;2023-07-16T04:25:34;100075.97;;;20.80;82.61
75063;BME280;63981;51.052;13.754;2023-07-16T04:28:00;100068.28;;;20.77;81.68
75063;BME280;63981;51.052;13.754;2023-07-16T04:30:30;100067.78;;;20.74;81.63
75063;BME280;63981;51.052;13.754;2023-07-16T04:32:56;100088.38;;;20.73;81.38
75063;BME280;63981;51.052;13.754;2023-07-16T04:35:22;100085.88;;;20.72;81.25
75063;BME280;63981;51.052;13.754;2023-07-16T04:37:49;100089.38;;;20.72;81.75
75063;BME280;63981;51.052;13.754;2023-07-16T04:40:16;100097.25;;;20.74;81.38
75063;BME280;63981;51.052;13.754;2023-07-16T04:42:43;100095.25;;;20.76;81.42
75063;BME280;63981;51.052;13.754;2023-07-16T04:45:09;100089.69;;;20.77;81.46
75063;BME280;63981;51.052;13.754;2023-07-16T04:47:35;100084.00;;;20.80;82.05
75063;BME280;63981;51.052;13.754;2023-07-16T04:50:02;100093.53;;;20.83;82.21
75063;BME280;63981;51.052;13.754;2023-07-16T04:52:28;100102.09;;;20.86;83.00
75063;BME280;63981;51.052;13.754;2023-07-16T04:54:55;100110.28;;;20.85;82.83
75063;BME280;63981;51.052;13.754;2023-07-16T04:57:23;100106.25;;;20.89;82.40
75063;BME280;63981;51.052;13.754;2023-07-16T04:59:49;100104.06;;;20.92;82.88
75063;BME280;63981;51.052;13.754;2023-07-16T05:02:15;100110.09;;;20.95;83.07
75063;BME280;63981;51.052;13.754;2023-07-16T05:04:43;100098.34;;;20.96;83.64
75063;BME280;63981;51.052;13.754;2023-07-16T05:07:10;100087.31;;;20.99;83.76
75063;BME280;63981;51.052;13.754;2023-07-16T05:09:36;100079.28;;;20.99;83.36
75063;BME280;63981;51.052;13.754;2023-07-16T05:12:03;100056.00;;;20.99;84.38
75063;BME280;63981;51.052;13.754;2023-07-16T05:14:31;100037.06;;;20.92;83.98
75063;BME280;63981;51.052;13.754;2023-07-16T05:16:57;100033.56;;;20.92;83.20
75063;BME280;63981;51.052;13.754;2023-07-16T05:19:23;100023.69;;;20.92;83.18
75063;BME280;63981;51.052;13.754;2023-07-16T05:21:50;100013.97;;;20.91;83.43
75063;BME280;63981;51.052;13.754;2023-07-16T05:24:16;100010.94;;;20.95;83.94
75063;BME280;63981;51.052;13.754;2023-07-16T05:26:42;100028.19;;;20.92;83.39
75063;BME280;63981;51.052;13.754;2023-07-16T05:29:09;100043.44;;;20.91;83.75
75063;BME280;63981;51.052;13.754;2023-07-16T05:31:36;100069.88;;;20.95;83.91
75063;BME280;63981;51.052;13.754;2023-07-16T05:34:03;100111.63;;;20.97;83.91
75063;BME280;63981;51.052;13.754;2023-07-16T05:36:29;100099.72;;;21.00;84.65
75063;BME280;63981;51.052;13.754;2023-07-16T05:38:55;100085.31;;;21.01;83.19
75063;BME280;63981;51.052;13.754;2023-07-16T05:41:22;100093.16;;;21.02;83.27
75063;BME280;63981;51.052;13.754;2023-07-16T05:43:48;100095.66;;;21.04;83.53
75063;BME280;63981;51.052;13.754;2023-07-16T05:46:15;100088.00;;;20.92;83.07
75063;BME280;63981;51.052;13.754;2023-07-16T05:48:42;100115.25;;;21.12;84.32
75063;BME280;63981;51.052;13.754;2023-07-16T05:51:08;100118.94;;;21.11;83.90
75063;BME280;63981;51.052;13.754;2023-07-16T05:53:35;100133.50;;;21.25;84.62
75063;BME280;63981;51.052;13.754;2023-07-16T05:56:01;100130.97;;;21.32;84.66
75063;BME280;63981;51.052;13.754;2023-07-16T05:58:27;100130.97;;;21.32;84.12
75063;BME280;63981;51.052;13.754;2023-07-16T06:00:53;100149.19;;;21.44;83.07
75063;BME280;63981;51.052;13.754;2023-07-16T06:03:20;100162.75;;;21.51;83.49
75063;BME280;63981;51.052;13.754;2023-07-16T06:05:48;100162.22;;;21.56;82.92
75063;BME280;63981;51.052;13.754;2023-07-16T06:08:14;100164.41;;;21.52;83.00
75063;BME280;63981;51.052;13.754;2023-07-16T06:10:40;100161.66;;;21.68;83.74
75063;BME280;63981;51.052;13.754;2023-07-16T06:13:07;100185.53;;;21.86;82.88
75063;BME280;63981;51.052;13.754;2023-07-16T06:15:33;100190.16;;;22.00;82.17
75063;BME280;63981;51.052;13.754;2023-07-16T06:18:00;100161.06;;;21.89;81.16
75063;BME280;63981;51.052;13.754;2023-07-16T06:20:26;100181.75;;;22.12;82.30
75063;BME280;63981;51.052;13.754;2023-07-16T06:22:53;100200.94;;;22.31;81.13
75063;BME280;63981;51.052;13.754;2023-07-16T06:25:20;100201.41;;;22.35;81.64
75063;BME280;63981;51.052;13.754;2023-07-16T06:27:47;100201.78;;;22.32;81.55
75063;BME280;63981;51.052;13.754;2023-07-16T06:30:13;100212.28;;;22.42;81.88
75063;BME280;63981;51.052;13.754;2023-07-16T06:32:39;100214.38;;;22.54;82.08
75063;BME280;63981;51.052;13.754;2023-07-16T06:35:07;100225.19;;;22.69;81.73
75063;BME280;63981;51.052;13.754;2023-07-16T06:37:33;100207.28;;;22.84;81.63
75063;BME280;63981;51.052;13.754;2023-07-16T06:40:01;100210.25;;;22.89;80.49
75063;BME280;63981;51.052;13.754;2023-07-16T06:42:29;100214.78;;;22.89;80.02
75063;BME280;63981;51.052;13.754;2023-07-16T06:44:55;100223.81;;;22.96;80.05
75063;BME280;63981;51.052;13.754;2023-07-16T06:47:21;100213.16;;;23.03;78.49
75063;BME280;63981;51.052;13.754;2023-07-16T06:49:48;100213.09;;;23.11;77.21
75063;BME280;63981;51.052;13.754;2023-07-16T06:52:20;100215.22;;;23.15;77.79
75063;BME280;63981;51.052;13.754;2023-07-16T06:54:47;100215.22;;;23.15;75.90
75063;BME280;63981;51.052;13.754;2023-07-16T06:57:15;100219.31;;;23.11;72.63
75063;BME280;63981;51.052;13.754;2023-07-16T06:59:41;100218.22;;;23.20;73.39
75063;BME280;63981;51.052;13.754;2023-07-16T07:02:07;100218.75;;;23.31;72.45
75063;BME280;63981;51.052;13.754;2023-07-16T07:04:34;100214.31;;;23.38;70.88
75063;BME280;63981;51.052;13.754;2023-07-16T07:07:00;100200.88;;;23.38;70.26
75063;BME280;63981;51.052;13.754;2023-07-16T07:09:26;100210.81;;;23.52;69.16
75063;BME280;63981;51.052;13.754;2023-07-16T07:11:52;100211.59;;;23.61;70.05
75063;BME280;63981;51.052;13.754;2023-07-16T07:14:20;100191.41;;;23.57;68.52
75063;BME280;63981;51.052;13.754;2023-07-16T07:16:46;100219.66;;;23.75;67.64
75063;BME280;63981;51.052;13.754;2023-07-16T07:19:13;100218.53;;;23.85;66.61
75063;BME280;63981;51.052;13.754;2023-07-16T07:21:39;100217.31;;;23.87;63.79
75063;BME280;63981;51.052;13.754;2023-07-16T07:24:05;100217.03;;;23.82;63.01
75063;BME280;63981;51.052;13.754;2023-07-16T07:26:31;100220.84;;;23.88;61.05
75063;BME280;63981;51.052;13.754;2023-07-16T07:28:58;100229.19;;;23.93;61.76
75063;BME280;63981;51.052;13.754;2023-07-16T07:31:25;100227.81;;;23.97;61.02
75063;BME280;63981;51.052;13.754;2023-07-16T07:33:52;100219.59;;;24.05;60.33
75063;BME280;63981;51.052;13.754;2023-07-16T07:36:19;100235.66;;;24.13;60.27
75063;BME280;63981;51.052;13.754;2023-07-16T07:38:46;100233.75;;;24.28;60.00
75063;BME280;63981;51.052;13.754;2023-07-16T07:41:12;100251.13;;;24.40;59.68
75063;BME280;63981;51.052;13.754;2023-07-16T07:43:38;100245.78;;;24.62;59.31
75063;BME280;63981;51.052;13.754;2023-07-16T07:46:04;100241.59;;;24.81;53.85
75063;BME280;63981;51.052;13.754;2023-07-16T07:48:33;100242.22;;;24.83;50.70
75063;BME280;63981;51.052;13.754;2023-07-16T07:50:59;100256.72;;;24.82;50.48
75063;BME280;63981;51.052;13.754;2023-07-16T07:53:26;100268.31;;;24.76;49.72
75063;BME280;63981;51.052;13.754;2023-07-16T07:55:52;100260.44;;;24.59;50.35
75063;BME280;63981;51.052;13.754;2023-07-16T07:58:18;100268.81;;;24.64;51.19
75063;BME280;63981;51.052;13.754;2023-07-16T08:00:44;100272.13;;;24.66;52.99
75063;BME280;63981;51.052;13.754;2023-07-16T08:03:11;100277.41;;;24.75;52.06
75063;BME280;63981;51.052;13.754;2023-07-16T08:05:38;100267.06;;;24.78;51.98
75063;BME280;63981;51.052;13.754;2023-07-16T08:08:05;100278.25;;;24.75;51.37
75063;BME280;63981;51.052;13.754;2023-07-16T08:10:31;100276.59;;;24.74;52.41
75063;BME280;63981;51.052;13.754;2023-07-16T08:12:58;100273.88;;;24.74;51.89
75063;BME280;63981;51.052;13.754;2023-07-16T08:15:24;100269.13;;;24.76;52.37
75063;BME280;63981;51.052;13.754;2023-07-16T08:17:51;100258.97;;;24.78;52.37
75063;BME280;63981;51.052;13.754;2023-07-16T08:20:17;100260.56;;;24.73;51.81
75063;BME280;63981;51.052;13.754;2023-07-16T08:22:45;100254.34;;;24.72;52.68
75063;BME280;63981;51.052;13.754;2023-07-16T08:25:11;100271.00;;;24.76;52.81
75063;BME280;63981;51.052;13.754;2023-07-16T08:27:38;100276.13;;;24.70;50.85
75063;BME280;63981;51.052;13.754;2023-07-16T08:30:05;100281.31;;;24.72;51.70
75063;BME280;63981;51.052;13.754;2023-07-16T08:32:32;100293.97;;;24.71;51.46
75063;BME280;63981;51.052;13.754;2023-07-16T08:34:58;100300.66;;;24.76;52.21
75063;BME280;63981;51.052;13.754;2023-07-16T08:37:24;100292.41;;;24.84;51.27
75063;BME280;63981;51.052;13.754;2023-07-16T08:39:52;100299.63;;;24.98;51.56
75063;BME280;63981;51.052;13.754;2023-07-16T08:42:21;100285.84;;;25.08;50.35
75063;BME280;63981;51.052;13.754;2023-07-16T08:44:49;100282.91;;;25.31;52.21
75063;BME280;63981;51.052;13.754;2023-07-16T08:47:19;100286.16;;;25.47;50.20
75063;BME280;63981;51.052;13.754;2023-07-16T08:49:55;100293.47;;;25.53;50.87
75063;BME280;63981;51.052;13.754;2023-07-16T08:52:22;100281.03;;;25.59;50.76
75063;BME280;63981;51.052;13.754;2023-07-16T08:54:48;100295.22;;;25.68;50.84
75063;BME280;63981;51.052;13.754;2023-07-16T08:57:16;100293.19;;;25.70;50.14
75063;BME280;63981;51.052;13.754;2023-07-16T08:59:44;100296.63;;;25.64;48.75
75063;BME280;63981;51.052;13.754;2023-07-16T09:02:13;100297.09;;;25.67;49.20
75063;BME280;63981;51.052;13.754;2023-07-16T09:04:39;100309.09;;;25.65;49.56
75063;BME280;63981;51.052;13.754;2023-07-16T09:07:06;100309.50;;;25.62;48.01
75063;BME280;63981;51.052;13.754;2023-07-16T09:09:32;100309.81;;;25.73;48.82
75063;BME280;63981;51.052;13.754;2023-07-16T09:11:58;100310.94;;;25.85;48.94
75063;BME280;63981;51.052;13.754;2023-07-16T09:14:26;100314.97;;;25.96;48.96
75063;BME280;63981;51.052;13.754;2023-07-16T09:16:52;100319.56;;;26.02;48.44
75063;BME280;63981;51.052;13.754;2023-07-16T09:19:19;100325.84;;;26.09;48.89
75063;BME280;63981;51.052;13.754;2023-07-16T09:21:46;100333.53;;;26.12;47.17
75063;BME280;63981;51.052;13.754;2023-07-16T09:24:13;100323.75;;;26.11;47.11
75063;BME280;63981;51.052;13.754;2023-07-16T09:26:47;100306.72;;;26.11;47.82
75063;BME280;63981;51.052;13.754;2023-07-16T09:29:14;100314.28;;;26.29;48.18
75063;BME280;63981;51.052;13.754;2023-07-16T09:31:55;100313.22;;;26.30;47.33
75063;BME280;63981;51.052;13.754;2023-07-16T09:34:21;100312.47;;;26.36;46.86
75063;BME280;63981;51.052;13.754;2023-07-16T09:36:48;100324.63;;;26.60;47.22
75063;BME280;63981;51.052;13.754;2023-07-16T09:39:16;100326.31;;;26.81;45.24
75063;BME280;63981;51.052;13.754;2023-07-16T09:41:44;100321.13;;;26.79;45.62
75063;BME280;63981;51.052;13.754;2023-07-16T09:44:11;100317.78;;;26.70;44.15
75063;BME280;63981;51.052;13.754;2023-07-16T09:46:37;100325.66;;;26.65;44.52
75063;BME280;63981;51.052;13.754;2023-07-16T09:49:06;100317.56;;;26.59;44.17
75063;BME280;63981;51.052;13.754;2023-07-16T09:51:34;100322.13;;;26.65;42.38
75063;BME280;63981;51.052;13.754;2023-07-16T09:54:02;100310.09;;;26.74;40.98
75063;BME280;63981;51.052;13.754;2023-07-16T09:56:33;100317.97;;;26.69;40.32
75063;BME280;63981;51.052;13.754;2023-07-16T09:59:01;100321.94;;;26.66;40.72
75063;BME280;63981;51.052;13.754;2023-07-16T10:01:28;100311.75;;;26.82;40.72
75063;BME280;63981;51.052;13.754;2023-07-16T10:03:56;100312.63;;;26.95;41.23
75063;BME280;63981;51.052;13.754;2023-07-16T10:06:23;100329.13;;;27.14;40.40
75063;BME280;63981;51.052;13.754;2023-07-16T10:08:50;100337.06;;;27.42;38.71
75063;BME280;63981;51.052;13.754;2023-07-16T10:11:17;100336.41;;;27.59;37.17
75063;BME280;63981;51.052;13.754;2023-07-16T10:13:48;100317.25;;;27.81;38.08
75063;BME280;63981;51.052;13.754;2023-07-16T10:16:19;100328.47;;;27.98;38.33
75063;BME280;63981;51.052;13.754;2023-07-16T10:18:50;100335.56;;;27.92;36.71
75063;BME280;63981;51.052;13.754;2023-07-16T10:21:24;100320.34;;;27.84;37.60
75063;BME280;63981;51.052;13.754;2023-07-16T10:23:57;100334.13;;;27.89;36.22
75063;BME280;63981;51.052;13.754;2023-07-16T10:26:27;100338.13;;;27.74;36.56
75063;BME280;63981;51.052;13.754;2023-07-16T10:28:55;100333.50;;;27.81;37.35
75063;BME280;63981;51.052;13.754;2023-07-16T10:31:22;100330.94;;;28.06;38.18
75063;BME280;63981;51.052;13.754;2023-07-16T10:33:59;100339.47;;;28.29;38.61
75063;BME280;63981;51.052;13.754;2023-07-16T10:36:27;100340.94;;;28.70;37.85
75063;BME280;63981;51.052;13.754;2023-07-16T10:38:54;100337.25;;;28.96;36.82
75063;BME280;63981;51.052;13.754;2023-07-16T10:41:20;100349.03;;;29.40;36.54
75063;BME280;63981;51.052;13.754;2023-07-16T10:43:47;100345.75;;;29.62;35.68
75063;BME280;63981;51.052;13.754;2023-07-16T10:46:13;100325.88;;;29.87;34.62
75063;BME280;63981;51.052;13.754;2023-07-16T10:48:46;100328.81;;;30.40;33.58
75063;BME280;63981;51.052;13.754;2023-07-16T10:51:14;100339.94;;;30.39;33.38
75063;BME280;63981;51.052;13.754;2023-07-16T10:53:42;100341.56;;;30.76;31.44
75063;BME280;63981;51.052;13.754;2023-07-16T10:56:08;100330.31;;;31.15;31.55
75063;BME280;63981;51.052;13.754;2023-07-16T10:58:36;100335.09;;;31.19;31.17
75063;BME280;63981;51.052;13.754;2023-07-16T11:01:02;100334.63;;;31.34;30.78
75063;BME280;63981;51.052;13.754;2023-07-16T11:03:29;100337.84;;;31.43;29.44
75063;BME280;63981;51.052;13.754;2023-07-16T11:05:55;100335.13;;;31.43;30.38
75063;BME280;63981;51.052;13.754;2023-07-16T11:08:22;100341.44;;;31.13;30.99
75063;BME280;63981;51.052;13.754;2023-07-16T11:10:54;100333.44;;;30.88;31.17
75063;BME280;63981;51.052;13.754;2023-07-16T11:13:25;100336.47;;;30.80;31.63
75063;BME280;63981;51.052;13.754;2023-07-16T11:15:51;100330.53;;;31.01;32.22
75063;BME280;63981;51.052;13.754;2023-07-16T11:18:18;100334.75;;;31.51;31.84
75063;BME280;63981;51.052;13.754;2023-07-16T11:20:44;100312.88;;;31.92;30.28
75063;BME280;63981;51.052;13.754;2023-07-16T11:23:10;100334.25;;;32.36;29.35
75063;BME280;63981;51.052;13.754;2023-07-16T11:25:37;100329.31;;;32.09;29.23
75063;BME280;63981;51.052;13.754;2023-07-16T11:28:04;100327.53;;;31.56;29.75
75063;BME280;63981;51.052;13.754;2023-07-16T11:30:31;100329.78;;;31.36;30.40
75063;BME280;63981;51.052;13.754;2023-07-16T11:32:58;100327.00;;;31.13;31.23
75063;BME280;63981;51.052;13.754;2023-07-16T11:35:25;100310.97;;;31.04;31.22
75063;BME280;63981;51.052;13.754;2023-07-16T11:37:52;100330.97;;;31.28;32.58
75063;BME280;63981;51.052;13.754;2023-07-16T11:40:19;100328.41;;;31.92;31.33
75063;BME280;63981;51.052;13.754;2023-07-16T11:42:46;100312.28;;;32.99;29.58
75063;BME280;63981;51.052;13.754;2023-07-16T11:45:19;100310.81;;;33.97;28.22
75063;BME280;63981;51.052;13.754;2023-07-16T11:47:45;100294.38;;;34.63;26.71
75063;BME280;63981;51.052;13.754;2023-07-16T11:50:12;100296.31;;;35.22;25.12
75063;BME280;63981;51.052;13.754;2023-07-16T11:52:39;100279.25;;;35.46;24.89
75063;BME280;63981;51.052;13.754;2023-07-16T11:55:07;100293.66;;;35.69;25.51
75063;BME280;63981;51.052;13.754;2023-07-16T11:57:34;100286.09;;;36.64;25.42
75063;BME280;63981;51.052;13.754;2023-07-16T12:00:00;100288.34;;;36.92;23.42
75063;BME280;63981;51.052;13.754;2023-07-16T12:02:28;100280.94;;;36.88;25.98
75063;BME280;63981;51.052;13.754;2023-07-16T12:04:55;100274.34;;;37.35;23.64
75063;BME280;63981;51.052;13.754;2023-07-16T12:07:31;100286.97;;;37.10;23.20
75063;BME280;63981;51.052;13.754;2023-07-16T12:09:59;100290.72;;;36.38;24.14
75063;BME280;63981;51.052;13.754;2023-07-16T12:12:25;100283.84;;;36.46;23.80
75063;BME280;63981;51.052;13.754;2023-07-16T12:14:52;100291.03;;;36.57;24.06
75063;BME280;63981;51.052;13.754;2023-07-16T12:17:18;100280.88;;;36.68;24.55
75063;BME280;63981;51.052;13.754;2023-07-16T12:19:46;100290.19;;;36.46;23.57
75063;BME280;63981;51.052;13.754;2023-07-16T12:22:13;100285.00;;;35.87;24.49
75063;BME280;63981;51.052;13.754;2023-07-16T12:24:42;100281.81;;;36.11;24.05
75063;BME280;63981;51.052;13.754;2023-07-16T12:27:08;100272.97;;;37.12;23.04
75063;BME280;63981;51.052;13.754;2023-07-16T12:29:35;100272.88;;;37.83;22.58
75063;BME280;63981;51.052;13.754;2023-07-16T12:32:01;100265.81;;;38.76;21.71
75063;BME280;63981;51.052;13.754;2023-07-16T12:34:28;100265.19;;;39.47;21.66
75063;BME280;63981;51.052;13.754;2023-07-16T12:36:56;100269.38;;;39.68;20.99
75063;BME280;63981;51.052;13.754;2023-07-16T12:39:22;100272.16;;;39.39;19.65
75063;BME280;63981;51.052;13.754;2023-07-16T12:41:49;100272.72;;;39.07;19.96